Airfield :
LOGIN :

Register | Disclaimer

   EN    FR    IT 

 










Legend :    VFR   Marginal VFR   IFR   Intensive IFR   Very Intensive IFR
Visi :
Ceiling :
>= 8 km
>= 3000ft
5 to 8 km
1000 to 3000 ft
1500m to 5 km
500 to 1000 ft
800 to 1500m
200 to 500 ft
< 800m
< 200 ft
Symbols :   Thunderstorms  Fog  Heavy snow  Heavy precipitations  Wind > 20 kt
SIGMETs :     Misc.  Thunderstorms  Icing  Turbulence  Mountain Waves  Volcanic Ashes






- Airport Elevation : 324 ft
- IATA code : KVB


ESGR - Skovde

CURRENT METAR :
  • 020920Z AUTO 16003KT 9000 BR OVC061/// 01/00 Q1023

EXPIRED METARs :
  • 020850Z AUTO 18002KT 9999 OVC059/// 01/00 Q1023
  • 020820Z AUTO 17003KT 8000 BR OVC057/// 01/00 Q1023
  • 020750Z AUTO 18003KT 8000 BR OVC059/// 01/00 Q1023
  • 020720Z AUTO 17004KT 7000 BR OVC059/// 01/00 Q1024
  • 020650Z AUTO 17004KT 7000 BR OVC059/// 01/00 Q1024

TAF N/A



MET'MAP, your aeronautical weather chart ! - Copyright ORBIFLY December 2007 - Disclaimer

ORBIFLY MET'MAP TEAM :

Programming & Development : Alexandra Zaïnal
Concept & original design : Baudouin d'Aumeries
Assistance for programming : Marc-Olivier Méhu
Technical & hardware support : Manuel Goepfert

Contact : metmap@orbifly.com




SOURCES & CREDITS :

   NOAA